Time;durP1;ratioP1;P1;durP2;ratioP2;P2;SDS_P1;SDS_P2;PMS_P1;PMS_P2;Temp;Humidity;BMP_temperature;BMP_pressure;BME280_temperature;BME280_humidity;BME280_pressure;Samples;Min_cycle;Max_cycle;Signal;HPM_P1;HPM_P2
2024/01/14 00:01:46;;;;;;;13.73;1.85;;;;;;;0.49;100.00;99630.28;5091116;28;20020;-72
2024/01/14 00:04:11;;;;;;;13.13;1.23;;;;;;;0.64;100.00;99657.78;5085871;28;20098;-72
2024/01/14 00:06:37;;;;;;;14.20;1.40;;;;;;;0.63;100.00;99651.66;5080865;28;20036;-72
2024/01/14 00:09:02;;;;;;;7.05;1.17;;;;;;;0.63;100.00;99648.16;5070104;28;20410;-72
2024/01/14 00:11:28;;;;;;;20.58;1.65;;;;;;;0.63;100.00;99653.44;5087195;28;20493;-72
2024/01/14 00:13:53;;;;;;;13.10;1.52;;;;;;;0.65;100.00;99648.84;5070425;28;20507;-71
2024/01/14 00:16:19;;;;;;;11.75;1.13;;;;;;;0.70;100.00;99649.19;5070368;28;20119;-72
2024/01/14 00:18:45;;;;;;;13.27;1.95;;;;;;;0.69;100.00;99636.91;5063855;28;20029;-72
2024/01/14 00:21:10;;;;;;;10.23;1.48;;;;;;;0.71;100.00;99650.84;5067048;28;20047;-72
2024/01/14 00:23:36;;;;;;;20.60;1.73;;;;;;;0.72;100.00;99663.06;5051420;28;20437;-72
2024/01/14 00:26:01;;;;;;;22.75;1.83;;;;;;;0.78;100.00;99658.94;5085769;28;20067;-71
2024/01/14 00:28:28;;;;;;;13.38;1.58;;;;;;;0.79;100.00;99653.47;5087257;28;20036;-72
2024/01/14 00:30:54;;;;;;;12.82;1.77;;;;;;;0.78;100.00;99649.19;5071378;28;20024;-72
2024/01/14 00:33:19;;;;;;;16.38;1.42;;;;;;;0.72;100.00;99643.72;5070139;28;20029;-72
2024/01/14 00:35:45;;;;;;;16.33;1.90;;;;;;;0.74;100.00;99642.56;5086978;28;20528;-72
2024/01/14 00:38:10;;;;;;;11.93;1.20;;;;;;;0.75;100.00;99648.69;5086968;28;20024;-72
2024/01/14 00:40:37;;;;;;;20.80;1.85;;;;;;;0.73;100.00;99640.06;5086970;28;20033;-72
2024/01/14 00:43:03;;;;;;;14.85;1.45;;;;;;;0.70;100.00;99630.66;5053426;28;20542;-71
2024/01/14 00:45:28;;;;;;;14.57;1.50;;;;;;;0.68;100.00;99627.34;5069557;28;20217;-72
2024/01/14 00:47:55;;;;;;;11.70;1.60;;;;;;;0.66;100.00;99618.72;5071406;28;20119;-72
2024/01/14 00:50:21;;;;;;;13.23;1.52;;;;;;;0.60;100.00;99624.69;5070983;28;20027;-72
2024/01/14 00:52:47;;;;;;;14.63;1.25;;;;;;;0.62;100.00;99618.22;5091741;28;20037;-70
2024/01/14 00:55:13;;;;;;;22.30;1.65;;;;;;;0.64;100.00;99618.88;5060350;28;20091;-72
2024/01/14 00:57:38;;;;;;;11.15;1.65;;;;;;;0.45;100.00;99590.09;5033722;28;20040;-72
2024/01/14 01:00:08;;;;;;;15.45;1.60;;;;;;;0.69;100.00;99618.38;5074293;28;20028;-71
2024/01/14 01:02:34;;;;;;;17.10;1.63;;;;;;;0.72;100.00;99627.81;5074289;28;20031;-71
2024/01/14 01:05:00;;;;;;;10.63;1.30;;;;;;;0.70;100.00;99614.78;5091322;28;20025;-72
2024/01/14 01:07:25;;;;;;;12.23;1.42;;;;;;;0.69;100.00;99624.50;5071978;28;20064;-72
2024/01/14 01:09:52;;;;;;;14.98;1.52;;;;;;;0.69;100.00;99618.38;5054884;28;20033;-72
2024/01/14 01:12:18;;;;;;;13.93;1.55;;;;;;;0.66;100.00;99624.84;5053111;28;20040;-72
2024/01/14 01:14:44;;;;;;;10.18;1.40;;;;;;;0.72;100.00;99627.81;5070186;28;20060;-72
2024/01/14 01:17:10;;;;;;;12.80;1.50;;;;;;;0.69;100.00;99624.50;5069194;28;20060;-71
2024/01/14 01:19:35;;;;;;;9.80;1.45;;;;;;;0.70;100.00;99618.25;5062063;28;20467;-72
2024/01/14 01:22:00;;;;;;;13.77;2.78;;;;;;;0.73;100.00;99625.03;5071500;28;20040;-72
2024/01/14 01:24:25;;;;;;;17.10;1.38;;;;;;;0.71;100.00;99613.75;5073717;28;20033;-72
2024/01/14 01:26:51;;;;;;;14.60;1.70;;;;;;;0.68;100.00;99603.50;5064772;28;20032;-73
2024/01/14 01:29:16;;;;;;;15.55;1.77;;;;;;;0.60;100.00;99593.75;5036798;28;20025;-72
2024/01/14 01:31:42;;;;;;;16.00;1.85;;;;;;;0.79;100.00;99605.00;5052272;28;20120;-72
2024/01/14 01:34:07;;;;;;;16.23;1.40;;;;;;;0.79;100.00;99607.63;5069414;28;20526;-72
2024/01/14 01:36:34;;;;;;;11.65;1.42;;;;;;;0.79;100.00;99615.56;5054536;28;20558;-71
2024/01/14 01:39:00;;;;;;;14.73;1.42;;;;;;;0.72;100.00;99596.06;5052313;28;20025;-72
2024/01/14 01:41:26;;;;;;;13.82;1.67;;;;;;;0.68;100.00;99595.56;5054379;28;20387;-72
2024/01/14 01:43:51;;;;;;;14.20;2.00;;;;;;;0.78;100.00;99606.81;5055164;28;20033;-71
2024/01/14 01:46:17;;;;;;;13.95;1.38;;;;;;;0.70;100.00;99606.81;5060838;28;20036;-72
2024/01/14 01:48:42;;;;;;;10.02;1.20;;;;;;;0.73;100.00;99603.84;5061241;28;20024;-72
2024/01/14 01:51:09;;;;;;;8.32;1.38;;;;;;;0.70;100.00;99609.47;5055156;28;20031;-72
2024/01/14 01:53:34;;;;;;;13.50;1.35;;;;;;;0.74;100.00;99599.38;5090121;28;20039;-72
2024/01/14 01:56:00;;;;;;;15.18;1.48;;;;;;;0.66;100.00;99593.09;5087450;28;20037;-71
2024/01/14 01:58:26;;;;;;;12.23;1.42;;;;;;;0.75;100.00;99604.50;5053819;28;20025;-72
2024/01/14 02:00:51;;;;;;;7.30;0.85;;;;;;;0.60;100.00;99567.28;5053078;28;20115;-72
2024/01/14 02:03:18;;;;;;;5.93;0.73;;;;;;;0.68;100.00;99579.69;5073757;28;20032;-72
2024/01/14 02:05:45;;;;;;;10.63;1.23;;;;;;;0.83;100.00;99593.91;5072025;28;20024;-72
2024/01/14 02:08:11;;;;;;;10.75;1.60;;;;;;;0.87;100.00;99597.06;5088346;28;20053;-72
2024/01/14 02:10:36;;;;;;;7.20;0.90;;;;;;;0.87;100.00;99600.53;5063778;28;20033;-72
2024/01/14 02:13:03;;;;;;;11.48;1.38;;;;;;;0.88;100.00;99596.06;5054231;28;20029;-71
2024/01/14 02:15:29;;;;;;;7.57;1.35;;;;;;;0.87;100.00;99591.75;5066658;28;20082;-72
2024/01/14 02:17:54;;;;;;;10.55;1.83;;;;;;;0.91;100.00;99588.59;5089211;28;20036;-72
2024/01/14 02:20:19;;;;;;;10.27;1.00;;;;;;;0.84;100.00;99584.16;5089477;28;20043;-72
2024/01/14 02:22:47;;;;;;;16.55;1.20;;;;;;;0.83;100.00;99588.63;5067855;28;20031;-76
2024/01/14 02:25:12;;;;;;;10.77;1.63;;;;;;;0.77;100.00;99591.94;5069136;28;20083;-72
2024/01/14 02:27:38;;;;;;;20.73;1.40;;;;;;;0.79;100.00;99586.44;5078011;28;20036;-72
2024/01/14 02:30:03;;;;;;;9.23;1.00;;;;;;;0.82;100.00;99580.81;5074125;28;20116;-72
2024/01/14 02:32:29;;;;;;;13.10;1.55;;;;;;;0.85;100.00;99589.25;5069122;28;20040;-72
2024/01/14 02:34:54;;;;;;;14.70;1.20;;;;;;;0.89;100.00;99577.38;5069732;28;20052;-72
2024/01/14 02:37:20;;;;;;;9.85;1.00;;;;;;;0.93;100.00;99578.69;5071978;28;20055;-72
2024/01/14 02:39:45;;;;;;;8.80;0.90;;;;;;;0.79;100.00;99544.91;5072267;28;20033;-72
2024/01/14 02:42:11;;;;;;;9.32;1.25;;;;;;;0.99;100.00;99576.34;5070727;28;20037;-72
2024/01/14 02:44:36;;;;;;;18.05;2.38;;;;;;;0.99;100.00;99581.63;5068906;28;20036;-72
2024/01/14 02:47:01;;;;;;;5.25;0.77;;;;;;;0.86;100.00;99559.16;5068296;28;20033;-72
2024/01/14 02:49:27;;;;;;;9.88;1.05;;;;;;;0.97;100.00;99576.53;5055802;28;20017;-72
2024/01/14 02:51:52;;;;;;;7.88;0.90;;;;;;;0.99;100.00;99582.47;5088746;28;20051;-72
2024/01/14 02:54:18;;;;;;;6.55;0.93;;;;;;;1.04;100.00;99576.69;5088326;28;20474;-72
2024/01/14 02:56:43;;;;;;;7.80;0.77;;;;;;;1.08;100.00;99578.00;5071248;28;20032;-72
2024/01/14 02:59:09;;;;;;;11.80;1.35;;;;;;;0.97;100.00;99559.81;5072989;28;20043;-72
2024/01/14 03:01:34;;;;;;;8.57;1.42;;;;;;;1.03;100.00;99561.78;5088564;28;20101;-72
2024/01/14 03:03:59;;;;;;;6.82;0.80;;;;;;;1.09;100.00;99567.25;5071063;28;20029;-72
2024/01/14 03:06:24;;;;;;;7.60;1.00;;;;;;;1.13;100.00;99557.97;5064289;28;20478;-72
2024/01/14 03:08:50;;;;;;;14.45;1.10;;;;;;;1.16;100.00;99551.50;5050259;28;20091;-72
2024/01/14 03:11:15;;;;;;;7.03;1.25;;;;;;;1.07;100.00;99552.50;5052669;28;20031;-72
2024/01/14 03:13:40;;;;;;;6.38;0.70;;;;;;;1.00;100.00;99552.34;5050766;28;20128;-71
2024/01/14 03:16:06;;;;;;;5.55;0.75;;;;;;;1.02;100.00;99554.81;5067560;28;20068;-72
2024/01/14 03:18:31;;;;;;;6.15;0.70;;;;;;;1.07;100.00;99547.22;5067331;28;20029;-72
2024/01/14 03:20:58;;;;;;;8.20;0.98;;;;;;;1.07;100.00;99548.03;5052712;28;20040;-72
2024/01/14 03:23:23;;;;;;;6.88;0.50;;;;;;;1.12;100.00;99550.16;5067629;28;20029;-71
2024/01/14 03:25:49;;;;;;;4.10;0.57;;;;;;;1.17;100.00;99537.25;5051459;28;20031;-71
2024/01/14 03:28:14;;;;;;;4.50;0.60;;;;;;;1.24;100.00;99532.91;5067720;28;20024;-72
2024/01/14 03:30:44;;;;;;;9.15;1.38;;;;;;;1.29;100.00;99521.78;5067406;28;20421;-71
2024/01/14 03:33:10;;;;;;;9.82;0.70;;;;;;;1.28;100.00;99526.28;5067161;28;20037;-71
2024/01/14 03:35:36;;;;;;;5.55;0.63;;;;;;;1.25;100.00;99528.44;5067280;28;20049;-71
2024/01/14 03:38:01;;;;;;;5.72;0.80;;;;;;;1.24;100.00;99529.44;5067638;28;20102;-72
2024/01/14 03:40:27;;;;;;;4.20;0.50;;;;;;;1.23;100.00;99536.56;5051991;28;20029;-72
2024/01/14 03:42:52;;;;;;;5.43;0.70;;;;;;;1.21;100.00;99525.31;5034589;28;20048;-71
2024/01/14 03:45:17;;;;;;;5.15;0.57;;;;;;;1.18;100.00;99525.66;5051463;28;20033;-71
2024/01/14 03:47:43;;;;;;;5.28;0.60;;;;;;;1.13;100.00;99522.69;5067522;28;20105;-71
2024/01/14 03:50:08;;;;;;;6.53;0.70;;;;;;;1.00;100.00;99525.03;5051950;28;20433;-72
2024/01/14 03:52:33;;;;;;;10.15;1.40;;;;;;;0.88;100.00;99516.59;5051981;28;20031;-71
2024/01/14 03:54:59;;;;;;;4.88;0.70;;;;;;;0.82;100.00;99525.22;5067241;28;20756;-71
2024/01/14 03:57:24;;;;;;;7.13;1.00;;;;;;;0.79;100.00;99512.31;5067217;28;20048;-71
2024/01/14 03:59:49;;;;;;;7.55;1.00;;;;;;;0.60;100.00;99485.22;5066913;28;20025;-71
2024/01/14 04:02:15;;;;;;;9.30;1.40;;;;;;;0.66;100.00;99500.44;5050170;28;20502;-71
2024/01/14 04:04:41;;;;;;;7.78;1.23;;;;;;;0.58;100.00;99497.78;5051321;28;20045;-71
2024/01/14 04:07:07;;;;;;;7.63;0.88;;;;;;;0.60;100.00;99498.44;5051026;28;20059;-71
2024/01/14 04:09:32;;;;;;;8.45;1.02;;;;;;;0.67;100.00;99507.38;5050490;28;20518;-71
2024/01/14 04:11:57;;;;;;;9.75;0.77;;;;;;;0.61;100.00;99501.91;5050760;28;20122;-71
2024/01/14 04:14:23;;;;;;;7.90;0.82;;;;;;;0.70;100.00;99495.63;5050049;28;20036;-71
2024/01/14 04:16:48;;;;;;;8.52;0.90;;;;;;;0.76;100.00;99502.88;5048379;28;20427;-71
2024/01/14 04:19:13;;;;;;;4.25;0.65;;;;;;;0.66;100.00;99499.59;5051164;28;20041;-71
2024/01/14 04:21:39;;;;;;;4.75;0.60;;;;;;;0.70;100.00;99499.09;5053736;28;20478;-71
2024/01/14 04:24:04;;;;;;;3.65;0.80;;;;;;;0.43;100.00;99471.19;5069464;28;20024;-71
2024/01/14 04:26:30;;;;;;;10.38;1.35;;;;;;;0.58;100.00;99507.53;5067518;28;20032;-71
2024/01/14 04:28:56;;;;;;;8.52;0.70;;;;;;;0.55;100.00;99513.16;5066324;28;20455;-71
2024/01/14 04:31:22;;;;;;;7.97;0.95;;;;;;;0.56;100.00;99517.47;5049816;28;20031;-71
2024/01/14 04:33:48;;;;;;;4.18;0.52;;;;;;;0.63;100.00;99507.84;5065778;28;20051;-71
2024/01/14 04:36:17;;;;;;;5.57;0.88;;;;;;;0.44;100.00;99478.13;5051542;28;20104;-71
2024/01/14 04:38:42;;;;;;;7.65;1.40;;;;;;;0.52;100.00;99505.56;5050583;28;20033;-71
2024/01/14 04:41:08;;;;;;;6.15;1.20;;;;;;;0.43;100.00;99505.56;5050224;28;20110;-72
2024/01/14 04:43:37;;;;;;;11.93;0.80;;;;;;;0.52;100.00;99503.72;5086771;28;20028;-72
2024/01/14 04:46:07;;;;;;;12.60;1.30;;;;;;;0.55;100.00;99499.94;5087032;28;20024;-71
2024/01/14 04:48:33;;;;;;;5.18;0.68;;;;;;;0.45;100.00;99495.63;5071849;28;20028;-71
2024/01/14 04:50:58;;;;;;;3.63;0.50;;;;;;;0.51;100.00;99501.28;5061431;28;20029;-71
2024/01/14 04:53:23;;;;;;;4.32;0.60;;;;;;;0.50;100.00;99497.81;5070569;28;20048;-71
2024/01/14 04:55:51;;;;;;;11.00;0.93;;;;;;;0.48;100.00;99494.47;5054710;28;20119;-71
2024/01/14 04:58:16;;;;;;;6.20;0.80;;;;;;;0.53;100.00;99491.31;5067495;28;20040;-70
2024/01/14 05:00:41;;;;;;;6.50;0.73;;;;;;;0.51;100.00;99498.63;5066520;28;20029;-70
2024/01/14 05:03:07;;;;;;;7.78;0.80;;;;;;;0.49;100.00;99495.31;5079792;28;20471;-71
2024/01/14 05:05:32;;;;;;;7.25;0.80;;;;;;;0.53;100.00;99489.53;5049871;28;20072;-71
2024/01/14 05:07:58;;;;;;;4.75;0.65;;;;;;;0.57;100.00;99490.03;5067079;28;20039;-71
2024/01/14 05:10:24;;;;;;;7.28;0.90;;;;;;;0.63;100.00;99490.19;5049807;28;20479;-71
2024/01/14 05:12:51;;;;;;;8.73;0.82;;;;;;;0.50;100.00;99487.22;5050669;28;20037;-71
2024/01/14 05:15:16;;;;;;;11.00;1.10;;;;;;;0.47;100.00;99476.97;5065784;28;20061;-71
2024/01/14 05:17:42;;;;;;;8.80;0.90;;;;;;;0.41;100.00;99462.56;5054175;28;20123;-72
2024/01/14 05:20:09;;;;;;;5.53;0.88;;;;;;;0.54;100.00;99483.22;5073576;28;20033;-71
2024/01/14 05:22:34;;;;;;;9.70;1.17;;;;;;;0.54;100.00;99483.22;5050925;28;20471;-71
2024/01/14 05:25:00;;;;;;;12.65;0.95;;;;;;;0.49;100.00;99488.19;5049594;28;20048;-71
2024/01/14 05:27:27;;;;;;;13.48;1.40;;;;;;;0.46;100.00;99484.06;5049215;28;20127;-71
2024/01/14 05:29:53;;;;;;;8.63;0.70;;;;;;;0.52;100.00;99481.75;5066052;28;20033;-71
2024/01/14 05:32:18;;;;;;;7.57;0.70;;;;;;;0.50;100.00;99481.91;5049710;28;20032;-71
2024/01/14 05:34:44;;;;;;;11.77;1.00;;;;;;;0.46;100.00;99489.38;5049206;28;20103;-71
2024/01/14 05:37:10;;;;;;;5.50;0.70;;;;;;;0.38;100.00;99475.31;5066355;28;20113;-71
2024/01/14 05:39:37;;;;;;;7.35;0.90;;;;;;;0.45;100.00;99478.94;5066284;28;20029;-71
2024/01/14 05:42:02;;;;;;;5.63;0.57;;;;;;;0.51;100.00;99474.81;5049677;28;20086;-71
2024/01/14 05:44:28;;;;;;;5.47;0.70;;;;;;;0.58;100.00;99475.78;5065087;28;20028;-72
2024/01/14 05:46:54;;;;;;;8.27;0.73;;;;;;;0.45;100.00;99453.28;5069502;28;20474;-71
2024/01/14 05:49:20;;;;;;;7.85;0.75;;;;;;;0.63;100.00;99474.28;5063541;28;20032;-71
2024/01/14 05:51:46;;;;;;;6.35;0.90;;;;;;;0.62;100.00;99471.81;5068787;28;20021;-71
2024/01/14 05:54:12;;;;;;;5.68;0.57;;;;;;;0.65;100.00;99471.47;5072930;28;20028;-72
2024/01/14 05:56:37;;;;;;;3.78;0.50;;;;;;;0.63;100.00;99473.44;5084715;28;20033;-72
2024/01/14 05:59:02;;;;;;;10.93;1.23;;;;;;;0.56;100.00;99470.63;5051941;28;20033;-70
2024/01/14 06:01:31;;;;;;;5.95;0.80;;;;;;;0.47;100.00;99453.13;5054162;28;20033;-72
2024/01/14 06:03:57;;;;;;;6.43;0.60;;;;;;;0.53;100.00;99455.13;5062610;28;20037;-72
2024/01/14 06:06:22;;;;;;;4.03;0.40;;;;;;;0.46;100.00;99462.91;5069396;28;20040;-71
2024/01/14 06:08:48;;;;;;;5.28;0.80;;;;;;;0.37;100.00;99458.59;5052221;28;20504;-71
2024/01/14 06:11:13;;;;;;;7.25;0.85;;;;;;;0.33;100.00;99456.44;5068893;28;20418;-72
2024/01/14 06:13:41;;;;;;;4.80;0.77;;;;;;;0.16;100.00;99445.03;5069920;28;20040;-72
2024/01/14 06:16:07;;;;;;;3.80;0.75;;;;;;;0.20;100.00;99456.97;5054861;28;20039;-71
2024/01/14 06:18:34;;;;;;;5.68;0.52;;;;;;;0.17;100.00;99454.66;5070453;28;20032;-71
2024/01/14 06:21:03;;;;;;;5.57;0.50;;;;;;;-0.08;100.00;99430.00;5052520;28;20054;-71
2024/01/14 06:23:29;;;;;;;4.57;0.52;;;;;;;-0.04;100.00;99448.00;5054090;28;20029;-72
2024/01/14 06:25:56;;;;;;;6.68;0.90;;;;;;;-0.31;100.00;99419.22;5079835;28;20037;-70
2024/01/14 06:28:21;;;;;;;4.28;0.60;;;;;;;-0.18;100.00;99446.00;5072288;28;20164;-71
2024/01/14 06:30:46;;;;;;;3.33;0.63;;;;;;;-0.21;100.00;99441.06;5036740;28;20028;-72
2024/01/14 06:33:12;;;;;;;4.00;0.50;;;;;;;-0.21;100.00;99443.69;5062820;28;20468;-73
2024/01/14 06:35:38;;;;;;;7.13;0.60;;;;;;;-0.25;100.00;99431.81;5078766;28;20052;-72
2024/01/14 06:38:03;;;;;;;4.15;0.55;;;;;;;-0.21;100.00;99429.66;5080819;28;20027;-72
2024/01/14 06:40:29;;;;;;;2.40;0.60;;;;;;;-0.25;100.00;99431.81;5052206;28;20028;-72
2024/01/14 06:42:54;;;;;;;7.90;1.77;;;;;;;-0.27;100.00;99431.94;5068972;28;20029;-72
2024/01/14 06:45:19;;;;;;;5.65;1.20;;;;;;;-0.30;100.00;99426.16;5069710;28;20347;-71
2024/01/14 06:47:45;;;;;;;6.68;0.82;;;;;;;-0.32;100.00;99425.53;5052185;28;20032;-72
2024/01/14 06:50:11;;;;;;;6.75;0.75;;;;;;;-0.40;100.00;99420.19;5069405;28;20028;-71
2024/01/14 06:52:39;;;;;;;6.15;0.60;;;;;;;-0.33;100.00;99429.13;5054001;28;20430;-72
2024/01/14 06:55:05;;;;;;;7.20;1.13;;;;;;;-0.53;100.00;99407.47;5064852;28;20523;-71
2024/01/14 06:57:31;;;;;;;7.50;0.80;;;;;;;-0.37;100.00;99441.03;5073473;28;20037;-71
2024/01/14 06:59:59;;;;;;;3.40;1.08;;;;;;;-0.37;100.00;99448.94;5063334;28;20495;-71
2024/01/14 07:02:24;;;;;;;6.10;0.80;;;;;;;-0.87;100.00;99367.94;5065251;28;20124;-72
2024/01/14 07:04:52;;;;;;;3.95;0.40;;;;;;;-0.48;100.00;99424.47;5071629;28;20119;-71
2024/01/14 07:07:17;;;;;;;3.55;0.50;;;;;;;-0.41;100.00;99440.53;5062291;28;20372;-71
2024/01/14 07:09:43;;;;;;;3.25;0.50;;;;;;;-0.64;100.00;99403.31;5068925;28;20031;-72
2024/01/14 07:12:08;;;;;;;8.90;0.73;;;;;;;-0.48;100.00;99427.13;5062879;28;20024;-72
2024/01/14 07:14:34;;;;;;;5.82;0.60;;;;;;;-0.51;100.00;99423.97;5088491;28;20024;-72
2024/01/14 07:17:00;;;;;;;6.72;0.65;;;;;;;-0.55;100.00;99417.38;5088714;28;20380;-72
2024/01/14 07:19:25;;;;;;;5.82;0.77;;;;;;;-0.58;100.00;99402.66;5089354;28;20045;-72
2024/01/14 07:21:51;;;;;;;7.10;0.70;;;;;;;-0.59;100.00;99403.66;5089084;28;20123;-71
2024/01/14 07:24:16;;;;;;;4.35;0.65;;;;;;;-0.69;100.00;99381.84;5088843;28;20036;-71
2024/01/14 07:26:41;;;;;;;4.82;0.50;;;;;;;-0.50;100.00;99407.13;5073133;28;20124;-70
2024/01/14 07:29:07;;;;;;;8.52;0.60;;;;;;;-0.54;100.00;99398.72;5072761;28;20024;-71
2024/01/14 07:31:34;;;;;;;7.30;0.60;;;;;;;-0.61;100.00;99397.72;5071099;28;20441;-70
2024/01/14 07:34:01;;;;;;;6.55;0.50;;;;;;;-0.80;100.00;99363.66;5088094;28;20484;-70
2024/01/14 07:36:28;;;;;;;7.93;0.50;;;;;;;-0.64;100.00;99386.63;5071032;28;20475;-70
2024/01/14 07:38:54;;;;;;;3.28;0.50;;;;;;;-0.63;100.00;99389.13;5087103;28;20032;-70
2024/01/14 07:41:19;;;;;;;5.72;0.50;;;;;;;-0.64;100.00;99384.00;5071146;28;20040;-70
2024/01/14 07:43:45;;;;;;;4.68;0.73;;;;;;;-0.83;100.00;99353.41;5071524;28;20036;-71
2024/01/14 07:46:11;;;;;;;3.38;0.43;;;;;;;-0.70;100.00;99377.53;5072406;28;20035;-71
2024/01/14 07:48:41;;;;;;;6.75;0.57;;;;;;;-0.70;100.00;99374.91;5071755;28;20043;-72
2024/01/14 07:51:06;;;;;;;5.10;0.65;;;;;;;-0.69;100.00;99373.09;5070404;28;20032;-71
2024/01/14 07:53:32;;;;;;;2.35;0.60;;;;;;;-0.71;100.00;99370.63;5072555;28;20098;-71
2024/01/14 07:55:57;;;;;;;5.13;0.80;;;;;;;-0.76;100.00;99370.28;5070679;28;20119;-71
2024/01/14 07:58:24;;;;;;;4.70;0.90;;;;;;;-0.80;100.00;99376.84;5072278;28;20035;-70
2024/01/14 08:00:49;;;;;;;9.20;1.00;;;;;;;-0.87;100.00;99370.56;5071998;28;20028;-71
2024/01/14 08:03:15;;;;;;;5.65;0.45;;;;;;;-0.90;100.00;99360.31;5088031;28;20038;-71
2024/01/14 08:05:40;;;;;;;2.78;0.45;;;;;;;-0.89;100.00;99369.88;5071242;28;20111;-70
2024/01/14 08:08:06;;;;;;;8.30;1.00;;;;;;;-0.87;100.00;99370.56;5068564;28;20021;-70
2024/01/14 08:10:35;;;;;;;4.00;0.47;;;;;;;-0.94;100.00;99373.03;5064005;28;20033;-70
2024/01/14 08:13:01;;;;;;;5.15;0.45;;;;;;;-0.93;100.00;99382.59;5077020;28;20017;-71
2024/01/14 08:15:26;;;;;;;4.57;0.40;;;;;;;-0.85;100.00;99379.16;5052800;28;20027;-71
2024/01/14 08:17:52;;;;;;;7.30;0.60;;;;;;;-0.80;100.00;99361.84;5067303;28;20033;-71
2024/01/14 08:20:17;;;;;;;3.72;0.50;;;;;;;-0.74;100.00;99370.94;5067577;28;20032;-72
2024/01/14 08:22:44;;;;;;;4.00;1.52;;;;;;;-0.67;100.00;99363.19;5067086;28;20025;-71
2024/01/14 08:25:10;;;;;;;11.50;1.25;;;;;;;-0.60;100.00;99364.19;5067742;28;20099;-71
2024/01/14 08:27:37;;;;;;;10.02;1.17;;;;;;;-0.50;100.00;99356.94;5069039;28;20093;-71
2024/01/14 08:30:04;;;;;;;7.78;1.63;;;;;;;-0.44;100.00;99358.09;5054704;28;20051;-72
2024/01/14 08:32:30;;;;;;;7.15;1.90;;;;;;;-0.39;100.00;99358.44;5034313;28;20037;-70
2024/01/14 08:34:55;;;;;;;8.15;1.63;;;;;;;-0.42;100.00;99346.38;5050160;28;20084;-71
2024/01/14 08:37:21;;;;;;;5.07;1.10;;;;;;;-0.31;100.00;99358.44;5067568;28;20063;-70
2024/01/14 08:39:46;;;;;;;4.97;0.40;;;;;;;-0.26;100.00;99356.16;5049636;28;20039;-71
2024/01/14 08:42:12;;;;;;;3.92;0.50;;;;;;;-0.21;100.00;99347.72;5050020;28;20025;-71
2024/01/14 08:44:37;;;;;;;4.55;0.50;;;;;;;-0.17;100.00;99346.38;5050932;28;20040;-71
2024/01/14 08:47:02;;;;;;;4.68;0.80;;;;;;;-0.11;100.00;99346.53;5067008;28;20040;-71
2024/01/14 08:49:29;;;;;;;4.70;0.40;;;;;;;-0.04;100.00;99330.84;5066302;28;20387;-71
2024/01/14 08:51:56;;;;;;;4.85;0.50;;;;;;;0.01;100.00;99340.94;5051058;28;20144;-71
2024/01/14 08:54:22;;;;;;;6.03;0.60;;;;;;;0.05;100.00;99329.03;5066851;28;20041;-71
2024/01/14 08:56:49;;;;;;;5.18;0.60;;;;;;;0.09;100.00;99332.97;5051439;28;20033;-71
2024/01/14 08:59:15;;;;;;;5.22;0.47;;;;;;;0.14;100.00;99331.47;5066908;28;20037;-71
2024/01/14 09:01:40;;;;;;;7.05;0.77;;;;;;;0.08;100.00;99312.81;5066865;28;20037;-69
2024/01/14 09:04:05;;;;;;;5.38;0.90;;;;;;;0.26;100.00;99329.28;5050316;28;20033;-71
2024/01/14 09:06:31;;;;;;;5.93;1.27;;;;;;;0.09;100.00;99288.00;5065280;28;20056;-71
2024/01/14 09:08:56;;;;;;;9.18;1.67;;;;;;;0.16;100.00;99278.41;5052196;28;20028;-70
2024/01/14 09:11:22;;;;;;;3.47;1.50;;;;;;;0.44;100.00;99318.50;5062924;28;20029;-71
2024/01/14 09:13:47;;;;;;;5.60;1.05;;;;;;;0.51;100.00;99311.53;5067863;28;20037;-71
2024/01/14 09:16:13;;;;;;;10.60;2.55;;;;;;;0.58;100.00;99312.50;5052663;28;20028;-70
2024/01/14 09:18:38;;;;;;;8.85;3.47;;;;;;;0.63;100.00;99306.69;5067505;28;20510;-71
2024/01/14 09:21:04;;;;;;;8.48;2.88;;;;;;;0.62;100.00;99287.34;5070707;28;20545;-71
2024/01/14 09:23:31;;;;;;;4.57;1.42;;;;;;;0.86;100.00;99317.34;5066066;28;20036;-71
2024/01/14 09:25:57;;;;;;;6.10;1.67;;;;;;;0.93;100.00;99295.31;5082573;28;20025;-70
2024/01/14 09:28:24;;;;;;;9.02;2.40;;;;;;;0.98;100.00;99301.91;5065800;28;20045;-70
2024/01/14 09:30:53;;;;;;;9.20;3.60;;;;;;;1.04;100.00;99304.66;5069742;28;20028;-71
2024/01/14 09:33:18;;;;;;;5.93;1.70;;;;;;;1.11;100.00;99299.50;5052484;28;20506;-71
2024/01/14 09:35:44;;;;;;;6.82;1.00;;;;;;;1.20;100.00;99287.03;5070526;28;20061;-72
2024/01/14 09:38:10;;;;;;;11.13;1.30;;;;;;;1.15;100.00;99269.81;5069957;28;20045;-71
2024/01/14 09:40:37;;;;;;;6.97;0.80;;;;;;;1.38;100.00;99291.03;5054867;28;20483;-71
2024/01/14 09:43:06;;;;;;;9.90;0.93;;;;;;;1.41;100.00;99285.38;5069539;28;20036;-71
2024/01/14 09:45:34;;;;;;;5.13;1.00;;;;;;;1.22;100.00;99243.44;5054763;28;20021;-71
2024/01/14 09:48:02;;;;;;;10.05;1.25;;;;;;;1.52;100.00;99283.31;5054337;28;20028;-71
2024/01/14 09:50:28;;;;;;;12.50;3.25;;;;;;;1.55;100.00;99270.50;5053796;28;20025;-71
2024/01/14 09:52:58;;;;;;;12.38;2.25;;;;;;;1.55;100.00;99259.09;5067764;28;20028;-71
2024/01/14 09:55:24;;;;;;;7.53;1.40;;;;;;;1.57;100.00;99252.63;5075226;28;20032;-71
2024/01/14 09:57:53;;;;;;;6.32;1.05;;;;;;;1.60;100.00;99248.78;5070032;28;20337;-71
2024/01/14 10:00:22;;;;;;;13.75;3.83;;;;;;;1.64;100.00;99253.53;5054430;28;20036;-71
2024/01/14 10:02:48;;;;;;;13.20;2.78;;;;;;;1.65;100.00;99238.44;5053575;28;20103;-72
2024/01/14 10:05:14;;;;;;;9.00;2.45;;;;;;;1.67;100.00;99240.94;5054248;28;20475;-72
2024/01/14 10:07:41;;;;;;;8.60;1.75;;;;;;;1.68;100.00;99226.66;5069731;28;20024;-72
2024/01/14 10:10:07;;;;;;;5.65;1.13;;;;;;;1.54;100.00;99196.47;5054700;28;20028;-72
2024/01/14 10:12:34;;;;;;;5.43;0.80;;;;;;;1.68;100.00;99216.88;5069645;28;20511;-72
2024/01/14 10:15:00;;;;;;;5.25;0.60;;;;;;;1.56;100.00;99191.84;5069629;28;20629;-72
2024/01/14 10:17:26;;;;;;;5.68;0.77;;;;;;;1.69;100.00;99205.28;5069969;28;20116;-71
2024/01/14 10:20:00;;;;;;;8.57;1.00;;;;;;;1.55;100.00;99179.56;5069699;28;20029;-72
2024/01/14 10:22:32;;;;;;;8.68;1.10;;;;;;;1.56;100.00;99184.69;5053299;28;20025;-71
2024/01/14 10:24:58;;;;;;;3.72;0.85;;;;;;;1.71;100.00;99200.63;5069695;28;20248;-72
2024/01/14 10:27:25;;;;;;;7.55;1.00;;;;;;;1.76;100.00;99202.75;5054289;28;20025;-72
2024/01/14 10:29:52;;;;;;;9.73;0.85;;;;;;;1.73;100.00;99193.31;5068593;28;20036;-71
2024/01/14 10:32:19;;;;;;;6.88;1.02;;;;;;;1.73;100.00;99187.19;5070184;28;20032;-72
2024/01/14 10:34:45;;;;;;;6.20;1.00;;;;;;;1.72;100.00;99175.72;5045830;28;20152;-72
2024/01/14 10:37:12;;;;;;;4.85;0.88;;;;;;;1.75;100.00;99187.81;5068687;28;20074;-72
2024/01/14 10:39:38;;;;;;;7.93;0.90;;;;;;;1.74;100.00;99165.78;5051549;28;20029;-72
2024/01/14 10:42:04;;;;;;;4.72;0.95;;;;;;;1.62;100.00;99140.72;5052364;28;20701;-72
2024/01/14 10:44:32;;;;;;;7.30;1.00;;;;;;;1.79;100.00;99178.50;5052356;28;20556;-71
2024/01/14 10:47:02;;;;;;;8.07;1.00;;;;;;;1.78;100.00;99159.09;5051810;28;20036;-72
2024/01/14 10:49:28;;;;;;;9.18;0.80;;;;;;;1.79;100.00;99155.47;5052626;28;20082;-72
2024/01/14 10:52:03;;;;;;;9.15;1.05;;;;;;;1.75;100.00;99145.38;5052422;28;20482;-71
2024/01/14 10:54:45;;;;;;;9.23;1.50;;;;;;;1.61;100.00;99115.22;5052947;28;20021;-72
2024/01/14 10:57:29;;;;;;;6.30;0.77;;;;;;;1.80;100.00;99138.53;5052749;28;20033;-72
2024/01/14 11:00:00;;;;;;;10.18;1.23;;;;;;;1.75;100.00;99132.94;5053092;28;20090;-71
2024/01/14 11:02:27;;;;;;;6.40;1.48;;;;;;;1.37;100.00;99056.19;5054148;28;20036;-72
2024/01/14 11:04:55;;;;;;;10.93;1.30;;;;;;;1.82;100.00;99131.22;5053199;28;20033;-72
2024/01/14 11:07:22;;;;;;;10.63;1.50;;;;;;;1.49;100.00;99066.31;5052867;28;20402;-72
2024/01/14 11:09:49;;;;;;;9.30;1.10;;;;;;;1.82;100.00;99117.97;5035694;28;20033;-72
2024/01/14 11:12:36;;;;;;;9.15;1.13;;;;;;;1.64;100.00;99075.09;5052385;28;20451;-72
2024/01/14 11:15:15;;;;;;;4.97;1.00;;;;;;;1.83;100.00;99103.69;5053531;28;20021;-72
2024/01/14 11:17:52;;;;;;;6.80;1.20;;;;;;;1.80;100.00;99088.16;5053066;28;20052;-72
2024/01/14 11:20:22;;;;;;;8.60;1.10;;;;;;;1.81;100.00;99087.13;5068945;28;20179;-72
2024/01/14 11:22:50;;;;;;;8.95;1.52;;;;;;;1.66;100.00;99062.47;5053120;28;20506;-72
2024/01/14 11:25:16;;;;;;;6.03;1.17;;;;;;;1.79;100.00;99070.59;5068222;28;20071;-72